AirNav   Phillips 66 Aviation Fuel
 
 966 users online  

67R Rio Grande City Municipal Airport
Rio Grande City, Texas, USA

GOING TO RIO GRANDE CITY?


FAA INFORMATION EFFECTIVE 04 JANUARY 2018

Location

FAA Identifier: 67R
Lat/Long: 26-25-27.4200N / 098-50-45.8900W
26-25.457000N / 098-50.764833W
26.4242833 / -98.8460806
(estimated)
Elevation: 290.3 ft. / 88.5 m (surveyed)
Variation: 07E (1990)
From city: 3 miles NW of RIO GRANDE CITY, TX
Time zone: UTC -6 (UTC -5 during Daylight Saving Time)
Zip code: 78582

Airport Operations

Airport use: Open to the public
Activation date: 03/1971
Control tower: no
ARTCC: HOUSTON CENTER
FSS: SAN ANGELO FLIGHT SERVICE STATION
NOTAMs facility: SJT (NOTAM-D service available)
Attendance: UNATNDD
Wind indicator: lighted
Segmented circle: yes
Lights: MIRL RY 16/34 PRESET LOW INTST; TO INCR INTST ACTVT - CTAF.
Beacon: white-green (lighted land airport)
Operates sunset to sunrise.

Airport Communications

CTAF: 122.9

Nearby radio navigation aids

VOR radial/distance  VOR name  Freq  Var
MFEr286/35.9MC ALLEN VOR/DME117.2009E

 
NDB name  Hdg/Dist  Freq  Var  ID
SANTA ELENA214/23.326007ESNE ... -. .

Airport Services

Parking: tiedowns

Runway Information

Runway 16/34

Dimensions: 4000 x 75 ft. / 1219 x 23 m
Surface: asphalt, in good condition
Weight bearing capacity: 
Single wheel: 12.5
Runway edge lights: medium intensity
RUNWAY 16  RUNWAY 34
Latitude: 26-25.707367N26-25.081167N
Longitude: 098-50.858500W098-50.626000W
Elevation: 290.3 ft.273.1 ft.
Gradient: 0.5%0.5%
Traffic pattern: leftleft
Runway heading: 155 magnetic, 162 true335 magnetic, 342 true
Markings: nonprecision, in good conditionnonprecision, in good condition
Touchdown point: yes, no lightsyes, no lights
Obstructions: none10 ft. brush, 200 ft. from runway, 57 ft. left of centerline
SCATTERED +10 FT BRUSH 50-200 FT FM THLD ACROSS APPROACH.

Airport Ownership and Management from official FAA records

Ownership: Publicly-owned
Owner: CITY OF RIO GRANDE CITY
5332 E. US-83
RIO GRANDE CITY, TX 78582
Phone 956-487-0672
Manager: RICARDO REYES
5332 E. US-83
RIO GRANDE CITY, TX 78582
Phone 956-487-5312
FIRE CHIEF

Airport Operational Statistics

Aircraft based on the field: 1
Helicopters: 1
    
Aircraft operations: avg 35/week *
99% local general aviation
1% transient general aviation
* for 12-month period ending 02 February 2017

Additional Remarks

ARPT GATE CLSD AND LOCKED CALL 956-487-5312 FOR ACCESS. NO PUBLIC PHONE WITHIN ARPT PROPERTY.

Instrument Procedures

There are no published instrument procedures at 67R.

Some nearby airports with instrument procedures:

KMFE - Mc Allen Miller International Airport (36 nm SE)
KEBG - South Texas International Airport at Edinburg (39 nm E)
T65 - Mid Valley Airport (49 nm E)
KHBV - Jim Hogg County Airport (56 nm N)
KBKS - Brooks County Airport (61 nm NE)
 
Loc | Ops | Rwys | IFR | FBO | Links
Com | Nav | Svcs | Stats | Notes


 
Area around 67R (Rio Grande City Municipal Airport)
 
Road maps at: MapQuest Bing Google
 
Aerial photo
WARNING: Photo may not be current or correct
Aerial photo of 67R (Rio Grande City Municipal Airport)
Photo taken 22-Feb-2008
from about 2000ft looking almost due south

Do you have a better or more recent aerial photo of Rio Grande City Municipal Airport that you would like to share? If so, please send us your photo.

 
Sectional chart

 
Airport distance calculator
Flying to Rio Grande City Municipal Airport? Find the distance to fly.

From to 67R

Sunrise and sunset
Times for 21-Jan-2018
 Local
(UTC-6)
 Zulu
(UTC)
Morning civil twilight07:0013:00
Sunrise07:2513:25
Sunset18:0900:09
Evening civil twilight18:3300:33

Current date and time
Zulu (UTC)  21-Jan-2018 20:42:20
Local (UTC-6)  21-Jan-2018 14:42:20
 
METAR
KMFE 
35nm SE 
211953Z 15015G25KT 10SM BKN040 28/18 A2982 RMK AO2 PK WND 15030/1856 SLP095 T02780183 $
KEBG 
39nm E 
212015Z AUTO 17017G23KT 10SM OVC037 27/17 A2982 RMK AO2 T02740170
KAPY 
39nm NW 
212015Z AUTO 19005KT 10SM CLR 23/14 A2982 RMK AO2 T02320146
MMRX 
42nm SE 
211943Z 13010G20KT 7SM SCT025 27/17 A2981 RMK 8/500 HZY PRESFR
KT65 
49nm E 
212015Z AUTO 18019G28KT 7SM 26/18 A2982 RMK AO2 T02550176
TAF
KMFE 
35nm SE 
212024Z 2120/2218 15015G25KT P6SM BKN040 FM220300 15006KT P6SM OVC015 FM220600 16004KT 4SM BR OVC007 FM220900 29002KT 1/2SM FG OVC001 FM221200 33009KT P6SM OVC007 FM221500 35013KT 5SM HZ OVC250
MMRX 
42nm SE 
211723Z 2118/2218 15020G30KT 6SM HZ BKN015 BKN220 BECMG 2123/2124 15018KT FM220300 17012KT 5SM HZ SCT010 FM220600 18005KT 3SM BR OVC008 FM22080 00000KT 1/2SM FG VV003 BECMG 2211/2212 34010KT FM221300 34015KT 2SM BR BKN004 FM221500 35020KT 6SM HZ BKN260
NOTAMs
Click for the latest NOTAMs
NOTAMs are issued by the DoD/FAA and will open in a separate window not controlled by AirNav.

 

 
 

Would you like to see your business listed on this page?

 If your business provides an interesting product or service to pilots, flight crews, aircraft, or users of the Rio Grande City Municipal Airport, you should consider listing it here.  To start the listing process, click on the button below
 
Add a business
 

Other Pages about Rio Grande City Municipal Airport

Update a link
 
Copyright © AirNav, LLC. All rights reserved. Privacy Policy  Contact